Time;durP1;ratioP1;P1;durP2;ratioP2;P2;SDS_P1;SDS_P2;PMS_P1;PMS_P2;Temp;Humidity;BMP_temperature;BMP_pressure;BME280_temperature;BME280_humidity;BME280_pressure;Samples;Min_cycle;Max_cycle;Signal;HPM_P1;HPM_P2
2022/06/15 00:00:45;;;;;;;10.93;8.07;;;;;;;-142.64;100.00;58178.75;5052541;28;20395;-58
2022/06/15 00:03:13;;;;;;;9.18;8.27;;;;;;;-142.64;100.00;58178.75;5051729;28;20029;-55
2022/06/15 00:05:42;;;;;;;10.95;8.15;;;;;;;-142.64;100.00;58178.75;5052499;28;20029;-56
2022/06/15 00:08:08;;;;;;;10.23;7.82;;;;;;;-142.64;100.00;58178.75;5051444;28;20056;-57
2022/06/15 00:10:33;;;;;;;10.25;8.02;;;;;;;-142.64;100.00;58178.75;5050858;28;20036;-55
2022/06/15 00:12:59;;;;;;;11.82;8.43;;;;;;;-142.64;100.00;58178.75;5051893;28;20553;-54
2022/06/15 00:15:24;;;;;;;9.73;7.65;;;;;;;-142.64;100.00;58178.75;5051864;28;20032;-57
2022/06/15 00:17:49;;;;;;;13.00;7.85;;;;;;;-142.64;100.00;58178.75;5051274;28;20112;-58
2022/06/15 00:20:15;;;;;;;11.98;8.25;;;;;;;-142.64;100.00;58178.75;5051175;28;20430;-57
2022/06/15 00:22:40;;;;;;;9.25;8.35;;;;;;;-142.64;100.00;58178.75;5052201;28;20506;-55
2022/06/15 00:25:07;;;;;;;9.90;7.75;;;;;;;-142.64;100.00;58178.75;5052128;28;20041;-55
2022/06/15 00:27:32;;;;;;;13.48;8.30;;;;;;;-142.64;100.00;58178.75;5052246;28;20037;-57
2022/06/15 00:29:58;;;;;;;9.30;8.18;;;;;;;-142.64;100.00;58178.75;5051277;28;20124;-59
2022/06/15 00:32:23;;;;;;;12.75;8.60;;;;;;;-142.64;100.00;58178.75;5052070;28;20381;-57
2022/06/15 00:34:49;;;;;;;11.07;7.65;;;;;;;-142.64;100.00;58178.75;5052119;28;20086;-58
2022/06/15 00:37:14;;;;;;;9.05;8.13;;;;;;;-142.64;100.00;58178.75;5052037;28;20044;-57
2022/06/15 00:39:40;;;;;;;11.65;8.65;;;;;;;-142.64;100.00;58178.75;5052160;28;20472;-58
2022/06/15 00:42:06;;;;;;;13.25;9.05;;;;;;;-142.64;100.00;58178.75;5052091;28;20396;-58
2022/06/15 00:44:34;;;;;;;15.40;10.40;;;;;;;-142.64;100.00;58178.75;5051103;28;20025;-55
2022/06/15 00:47:05;;;;;;;12.13;8.68;;;;;;;-142.64;100.00;58178.75;5052214;28;20486;-57
2022/06/15 00:49:35;;;;;;;14.57;8.55;;;;;;;-142.64;100.00;58178.75;5050972;28;20028;-57
2022/06/15 00:52:13;;;;;;;12.60;9.43;;;;;;;-142.64;100.00;58178.75;5050739;28;20603;-58
2022/06/15 00:54:39;;;;;;;11.98;9.48;;;;;;;-142.64;100.00;58178.75;5050683;28;20029;-59
2022/06/15 00:57:04;;;;;;;10.75;9.10;;;;;;;-142.64;100.00;58178.75;5052054;28;20029;-56
2022/06/15 00:59:37;;;;;;;12.23;9.57;;;;;;;-142.64;100.00;58178.75;5052081;28;20036;-58
2022/06/15 01:02:03;;;;;;;10.45;9.32;;;;;;;-142.64;100.00;58178.75;5056270;28;20037;-58
2022/06/15 01:04:37;;;;;;;14.00;10.00;;;;;;;-142.64;100.00;58178.75;5056215;28;20528;-57
2022/06/15 01:07:35;;;;;;;12.48;9.63;;;;;;;-142.64;100.00;58178.75;5054725;28;20469;-57
2022/06/15 01:10:12;;;;;;;11.82;9.93;;;;;;;-142.64;100.00;58178.75;5043644;28;20098;-57
2022/06/15 01:12:59;;;;;;;13.43;10.02;;;;;;;-142.64;100.00;58178.75;5054573;28;20132;-56
2022/06/15 01:15:33;;;;;;;11.30;9.57;;;;;;;-142.64;100.00;58178.75;5054304;28;20039;-57
2022/06/15 01:18:26;;;;;;;13.68;9.25;;;;;;;-142.64;100.00;58178.75;5054705;28;20037;-57
2022/06/15 01:21:17;;;;;;;12.93;10.57;;;;;;;-142.64;100.00;58178.75;5054624;28;20040;-57
2022/06/15 01:23:50;;;;;;;12.73;9.63;;;;;;;-142.64;100.00;58178.75;5054231;28;20045;-58
2022/06/15 01:26:47;;;;;;;13.60;10.38;;;;;;;-142.64;100.00;58178.75;5054477;28;20047;-55
2022/06/15 01:29:40;;;;;;;11.93;10.00;;;;;;;-142.64;100.00;58178.75;5055288;28;20482;-58
2022/06/15 01:32:14;;;;;;;11.23;10.13;;;;;;;-142.64;100.00;58178.75;5055303;28;20187;-56
2022/06/15 01:35:00;;;;;;;14.30;10.25;;;;;;;-142.64;100.00;58178.75;5037573;28;20425;-58
2022/06/15 01:38:01;;;;;;;13.48;10.02;;;;;;;-142.64;100.00;58178.75;5037568;28;20033;-57
2022/06/15 01:40:36;;;;;;;10.57;9.57;;;;;;;-142.64;100.00;58178.75;5051117;28;20044;-58
2022/06/15 01:43:07;;;;;;;13.43;8.85;;;;;;;-142.64;100.00;58178.75;5054245;28;20033;-56
2022/06/15 01:45:33;;;;;;;;;;;;;;;-142.64;100.00;58178.75;5037827;28;20448;-59
2022/06/15 01:47:59;;;;;;;14.18;9.70;;;;;;;-142.64;100.00;58178.75;5053747;28;19999;-59
2022/06/15 01:50:28;;;;;;;15.00;10.15;;;;;;;-142.64;100.00;58178.75;5053877;28;20075;-58
2022/06/15 01:53:00;;;;;;;13.63;9.40;;;;;;;-142.64;100.00;58178.75;5053860;28;20036;-57
2022/06/15 01:55:30;;;;;;;16.13;9.63;;;;;;;-142.64;100.00;58178.75;5055173;28;20040;-56
2022/06/15 01:57:58;;;;;;;11.55;9.68;;;;;;;-142.64;100.00;58178.75;5055230;28;20106;-57
2022/06/15 02:00:24;;;;;;;15.90;10.52;;;;;;;-142.64;100.00;58178.75;5053634;28;20033;-57
2022/06/15 02:03:02;;;;;;;11.93;9.55;;;;;;;-142.64;100.00;58178.75;5053558;28;20036;-57
2022/06/15 02:05:48;;;;;;;12.70;9.75;;;;;;;-142.64;100.00;58178.75;5054891;28;20029;-57
2022/06/15 02:08:20;;;;;;;11.23;8.75;;;;;;;-142.64;100.00;58178.75;5055003;28;20037;-57
2022/06/15 02:10:55;;;;;;;11.40;9.35;;;;;;;-142.64;100.00;58178.75;5054668;28;20083;-57
2022/06/15 02:13:30;;;;;;;13.68;10.57;;;;;;;-142.64;100.00;58178.75;5053153;28;20064;-57
2022/06/15 02:16:02;;;;;;;12.18;10.10;;;;;;;-142.64;100.00;58178.75;5053307;28;20103;-59
2022/06/15 02:18:28;;;;;;;14.73;9.93;;;;;;;-142.64;100.00;58178.75;5053103;28;20436;-56
2022/06/15 02:20:59;;;;;;;12.95;10.13;;;;;;;-142.64;100.00;58178.75;5053229;28;20059;-58
2022/06/15 02:23:25;;;;;;;17.63;10.00;;;;;;;-142.64;100.00;58178.75;5036584;28;20480;-56
2022/06/15 02:25:51;;;;;;;13.63;10.25;;;;;;;-142.64;100.00;58178.75;5053187;28;20017;-55
2022/06/15 02:28:18;;;;;;;12.85;10.32;;;;;;;-142.64;100.00;58178.75;5054054;28;20029;-58
2022/06/15 02:30:44;;;;;;;13.90;10.25;;;;;;;-142.64;100.00;58178.75;5053314;28;20400;-55
2022/06/15 02:33:27;;;;;;;11.88;9.88;;;;;;;-142.64;100.00;58178.75;5052954;28;20036;-58
2022/06/15 02:35:53;;;;;;;13.40;9.73;;;;;;;-142.64;100.00;58178.75;5054521;28;20040;-56
2022/06/15 02:38:19;;;;;;;14.32;10.45;;;;;;;-142.64;100.00;58178.75;5053073;28;20120;-59
2022/06/15 02:40:44;;;;;;;13.77;9.27;;;;;;;-142.64;100.00;58178.75;5054148;28;20112;-56
2022/06/15 02:43:10;;;;;;;11.27;10.00;;;;;;;-142.64;100.00;58178.75;5052707;28;20029;-59
2022/06/15 02:45:40;;;;;;;12.27;9.63;;;;;;;-142.64;100.00;58178.75;5054284;28;20037;-56
2022/06/15 02:48:07;;;;;;;16.05;10.75;;;;;;;-142.64;100.00;58178.75;5053879;28;20452;-52
2022/06/15 02:50:37;;;;;;;12.95;10.05;;;;;;;-142.64;100.00;58178.75;5053984;28;20094;-57
2022/06/15 02:53:09;;;;;;;16.17;10.80;;;;;;;-142.64;100.00;58178.75;5052572;28;20476;-58
2022/06/15 02:55:35;;;;;;;14.32;10.20;;;;;;;-142.64;100.00;58178.75;5035824;28;20396;-58
2022/06/15 02:58:10;;;;;;;12.90;9.10;;;;;;;-142.64;100.00;58178.75;5052651;28;20032;-58
2022/06/15 03:00:36;;;;;;;12.25;9.75;;;;;;;-142.64;100.00;58178.75;5052892;28;20036;-57
2022/06/15 03:03:01;;;;;;;14.27;10.15;;;;;;;-142.64;100.00;58178.75;5052587;28;20033;-58
2022/06/15 03:05:27;;;;;;;12.45;9.25;;;;;;;-142.64;100.00;58178.75;5052427;28;20106;-58
2022/06/15 03:07:52;;;;;;;11.85;10.10;;;;;;;-142.64;100.00;58178.75;5053468;28;20029;-59
2022/06/15 03:10:17;;;;;;;13.32;9.02;;;;;;;-142.64;100.00;58178.75;5053403;28;20025;-55
2022/06/15 03:12:43;;;;;;;12.75;8.85;;;;;;;-142.64;100.00;58178.75;5052192;28;20330;-57
2022/06/15 03:15:10;;;;;;;12.55;9.73;;;;;;;-142.64;100.00;58178.75;5053739;28;20037;-57
2022/06/15 03:17:35;;;;;;;11.43;9.77;;;;;;;-142.64;100.00;58178.75;5053619;28;20037;-58
2022/06/15 03:20:01;;;;;;;12.65;9.30;;;;;;;-142.64;100.00;58178.75;5053345;28;20033;-57
2022/06/15 03:22:26;;;;;;;13.35;10.25;;;;;;;-142.64;100.00;58178.75;5052849;28;20514;-56
2022/06/15 03:24:51;;;;;;;12.90;9.68;;;;;;;-142.64;100.00;58178.75;5053040;28;20492;-57
2022/06/15 03:27:18;;;;;;;13.25;9.88;;;;;;;-142.64;100.00;58178.75;5053397;28;20037;-57
2022/06/15 03:29:45;;;;;;;11.65;10.50;;;;;;;-142.64;100.00;58178.75;5053312;28;20025;-57
2022/06/15 03:32:14;;;;;;;13.70;9.48;;;;;;;-142.64;100.00;58178.75;5052996;28;20029;-59
2022/06/15 03:34:39;;;;;;;13.90;9.65;;;;;;;-142.64;100.00;58178.75;5053141;28;20039;-59
2022/06/15 03:37:05;;;;;;;13.68;10.05;;;;;;;-142.64;100.00;58178.75;5052681;28;20033;-57
2022/06/15 03:39:30;;;;;;;12.20;10.35;;;;;;;-142.64;100.00;58178.75;5053115;28;20040;-58
2022/06/15 03:41:55;;;;;;;12.70;9.65;;;;;;;-142.64;100.00;58178.75;5053122;28;20064;-57
2022/06/15 03:44:20;;;;;;;14.43;10.50;;;;;;;-142.64;100.00;58178.75;5051710;28;20570;-58
2022/06/15 03:46:46;;;;;;;13.27;9.80;;;;;;;-142.64;100.00;58178.75;5052892;28;20033;-58
2022/06/15 03:49:11;;;;;;;12.27;9.77;;;;;;;-142.64;100.00;58178.75;5052964;28;20039;-56
2022/06/15 03:51:36;;;;;;;11.98;8.90;;;;;;;-142.64;100.00;58178.75;5034871;28;20043;-56
2022/06/15 03:54:02;;;;;;;11.75;9.70;;;;;;;-142.64;100.00;58178.75;5052551;28;20032;-59
2022/06/15 03:56:46;;;;;;;13.73;9.52;;;;;;;-142.64;100.00;58178.75;5052911;28;20048;-56
2022/06/15 03:59:12;;;;;;;13.63;9.75;;;;;;;-142.64;100.00;58178.75;5052671;28;20543;-58
2022/06/15 04:01:37;;;;;;;12.73;9.20;;;;;;;-142.64;100.00;58178.75;5051481;28;20116;-57
2022/06/15 04:04:03;;;;;;;12.82;9.80;;;;;;;-142.64;100.00;58178.75;5051352;28;20033;-57
2022/06/15 04:06:28;;;;;;;14.25;9.68;;;;;;;-142.64;100.00;58178.75;5052908;28;20067;-58
2022/06/15 04:08:53;;;;;;;11.32;9.35;;;;;;;-142.64;100.00;58178.75;5051561;28;20040;-58
2022/06/15 04:14:11;;;;;;;10.98;9.88;;;;;;;-142.64;100.00;58178.75;5044209;28;20072;-56
2022/06/15 04:16:37;;;;;;;11.75;9.57;;;;;;;-142.64;100.00;58178.75;5052597;28;20037;-56
2022/06/15 04:19:04;;;;;;;11.50;9.95;;;;;;;-142.64;100.00;58178.75;5051449;28;20124;-56
2022/06/15 04:21:30;;;;;;;13.63;9.50;;;;;;;-142.64;100.00;58178.75;5052406;28;20037;-57
2022/06/15 04:23:55;;;;;;;11.57;9.80;;;;;;;-142.64;100.00;58178.75;5052441;28;20029;-57
2022/06/15 04:26:21;;;;;;;14.63;9.35;;;;;;;-142.64;100.00;58178.75;5050997;28;20035;-59
2022/06/15 04:28:46;;;;;;;10.77;9.38;;;;;;;-142.64;100.00;58178.75;5052619;28;20029;-57
2022/06/15 04:31:13;;;;;;;10.77;9.10;;;;;;;-142.64;100.00;58178.75;5052334;28;20036;-59
2022/06/15 04:33:38;;;;;;;10.35;9.10;;;;;;;-142.64;100.00;58178.75;5051417;28;20413;-59
2022/06/15 04:36:05;;;;;;;11.13;9.32;;;;;;;-142.64;100.00;58178.75;5052232;28;20037;-58
2022/06/15 04:38:31;;;;;;;10.57;8.38;;;;;;;-142.64;100.00;58178.75;5052393;28;20038;-55
2022/06/15 04:40:56;;;;;;;11.82;8.50;;;;;;;-142.64;100.00;58178.75;5052504;28;20037;-58
2022/06/15 04:43:22;;;;;;;11.52;8.70;;;;;;;-142.64;100.00;58178.75;5052427;28;20069;-58
2022/06/15 04:45:48;;;;;;;11.30;8.02;;;;;;;-142.64;100.00;58178.75;5052480;28;20465;-58
2022/06/15 04:48:15;;;;;;;12.18;7.97;;;;;;;-142.64;100.00;58178.75;5051110;28;20033;-59
2022/06/15 04:50:41;;;;;;;12.80;8.70;;;;;;;-142.64;100.00;58178.75;5051012;28;20128;-56
2022/06/15 04:53:07;;;;;;;12.38;8.60;;;;;;;-142.64;100.00;58178.75;5050976;28;20041;-60
2022/06/15 04:55:34;;;;;;;9.98;8.52;;;;;;;-142.64;100.00;58178.75;5051286;28;20033;-57
2022/06/15 04:58:00;;;;;;;13.70;8.48;;;;;;;-142.64;100.00;58178.75;5052309;28;20033;-58
2022/06/15 05:00:29;;;;;;;8.90;8.00;;;;;;;-142.64;100.00;58178.75;5050846;28;20024;-58
2022/06/15 05:02:54;;;;;;;13.70;8.13;;;;;;;-142.64;100.00;58178.75;5051619;28;20535;-59
2022/06/15 05:05:20;;;;;;;12.55;8.43;;;;;;;-142.64;100.00;58178.75;5050764;28;20120;-58
2022/06/15 05:07:46;;;;;;;9.18;7.63;;;;;;;-142.64;100.00;58178.75;5051920;28;20033;-55
2022/06/15 05:10:15;;;;;;;11.00;7.45;;;;;;;-142.64;100.00;58178.75;5051786;28;20377;-56
2022/06/15 05:12:40;;;;;;;11.07;8.00;;;;;;;-142.64;100.00;58178.75;5051245;28;20091;-58
2022/06/15 05:15:06;;;;;;;16.95;7.82;;;;;;;-142.64;100.00;58178.75;5050410;28;20138;-57
2022/06/15 05:17:31;;;;;;;11.52;7.63;;;;;;;-142.64;100.00;58178.75;5050173;28;20030;-56
2022/06/15 05:19:57;;;;;;;8.98;7.03;;;;;;;-142.64;100.00;58178.75;5049214;28;20029;-57
2022/06/15 05:22:22;;;;;;;12.25;7.97;;;;;;;-142.64;100.00;58178.75;5050118;28;20036;-58
2022/06/15 05:24:47;;;;;;;8.23;7.28;;;;;;;-142.64;100.00;58178.75;5051642;28;20384;-54
2022/06/15 05:27:13;;;;;;;10.15;7.10;;;;;;;-142.64;100.00;58178.75;5051940;28;20044;-58
2022/06/15 05:29:38;;;;;;;9.15;6.60;;;;;;;-142.64;100.00;58178.75;5051648;28;20040;-57
2022/06/15 05:32:05;;;;;;;7.68;6.80;;;;;;;-142.64;100.00;58178.75;5051630;28;20493;-53
2022/06/15 05:34:30;;;;;;;9.77;6.65;;;;;;;-142.64;100.00;58178.75;5050643;28;20033;-57
2022/06/15 05:36:56;;;;;;;9.38;6.32;;;;;;;-142.64;100.00;58178.75;5048599;28;20117;-60
2022/06/15 05:39:21;;;;;;;9.52;6.85;;;;;;;-142.64;100.00;58178.75;5052056;28;20041;-58
2022/06/15 05:41:49;;;;;;;9.13;6.60;;;;;;;-142.64;100.00;58178.75;5050098;28;20068;-58
2022/06/15 05:46:57;;;;;;;8.73;6.00;;;;;;;-142.64;100.00;58178.75;5050623;28;20120;-58
2022/06/15 05:49:22;;;;;;;7.72;5.68;;;;;;;-142.64;100.00;58178.75;5054938;28;20036;-60
2022/06/15 05:51:48;;;;;;;8.70;6.05;;;;;;;-142.64;100.00;58178.75;5055007;28;20041;-58
2022/06/15 05:54:13;;;;;;;8.57;5.65;;;;;;;-142.64;100.00;58178.75;5053534;28;20033;-57
2022/06/15 05:56:38;;;;;;;7.30;5.35;;;;;;;-142.64;100.00;58178.75;5055100;28;20044;-57
2022/06/15 05:59:04;;;;;;;11.73;6.93;;;;;;;-142.64;100.00;58178.75;5054072;28;20029;-57
2022/06/15 06:01:34;;;;;;;8.88;5.40;;;;;;;-142.64;100.00;58178.75;5055214;28;20191;-57
2022/06/15 06:04:00;;;;;;;8.60;5.03;;;;;;;-142.64;100.00;58178.75;5055290;28;20025;-59
2022/06/15 06:06:26;;;;;;;9.80;5.20;;;;;;;-142.64;100.00;58178.75;5053542;28;20033;-59
2022/06/15 06:08:51;;;;;;;7.72;5.07;;;;;;;-142.64;100.00;58178.75;5054826;28;20068;-53
2022/06/15 06:11:17;;;;;;;9.38;5.65;;;;;;;-142.64;100.00;58178.75;5053595;28;20098;-54
2022/06/15 06:13:43;;;;;;;5.85;4.72;;;;;;;-142.64;100.00;58178.75;5054963;28;20251;-59
2022/06/15 06:16:08;;;;;;;8.52;5.00;;;;;;;-142.64;100.00;58178.75;5054494;28;20070;-58
2022/06/15 06:18:34;;;;;;;8.18;4.72;;;;;;;-142.64;100.00;58178.75;5054707;28;20068;-58
2022/06/15 06:21:00;;;;;;;6.50;4.43;;;;;;;-142.64;100.00;58178.75;5053377;28;20068;-58
2022/06/15 06:23:25;;;;;;;6.88;4.75;;;;;;;-142.64;100.00;58178.75;5054503;28;20028;-56
2022/06/15 06:25:52;;;;;;;7.57;4.93;;;;;;;-142.64;100.00;58178.75;5054468;28;20075;-56
2022/06/15 06:28:29;;;;;;;9.48;4.72;;;;;;;-142.64;100.00;58178.75;5053367;28;20033;-57
2022/06/15 06:30:59;;;;;;;8.32;4.38;;;;;;;-142.64;100.00;58178.75;5054498;28;20036;-58
2022/06/15 06:33:26;;;;;;;7.38;4.25;;;;;;;-142.64;100.00;58178.75;5054424;28;20040;-55
2022/06/15 06:35:53;;;;;;;7.55;4.05;;;;;;;-142.64;100.00;58178.75;5053072;28;20031;-58
2022/06/15 06:38:18;;;;;;;6.10;3.90;;;;;;;-142.64;100.00;58178.75;5054080;28;20099;-55
2022/06/15 06:40:44;;;;;;;7.35;4.05;;;;;;;-142.64;100.00;58178.75;5054347;28;20464;-57
2022/06/15 06:43:09;;;;;;;6.40;3.92;;;;;;;-142.64;100.00;58178.75;5053069;28;20525;-57
2022/06/15 06:45:34;;;;;;;5.95;3.75;;;;;;;-142.64;100.00;58178.75;5054319;28;20546;-54
2022/06/15 06:48:00;;;;;;;5.70;4.38;;;;;;;-142.64;100.00;58178.75;5054032;28;20037;-58
2022/06/15 06:50:26;;;;;;;6.75;3.67;;;;;;;-142.64;100.00;58178.75;5053142;28;20082;-57
2022/06/15 06:52:52;;;;;;;7.50;3.90;;;;;;;-142.64;100.00;58178.75;5054549;28;20104;-58
2022/06/15 06:55:17;;;;;;;7.13;4.35;;;;;;;-142.64;100.00;58178.75;5052588;28;20407;-56
2022/06/15 06:57:42;;;;;;;9.43;4.43;;;;;;;-142.64;100.00;58178.75;5053135;28;20044;-57
2022/06/15 07:00:08;;;;;;;8.45;3.88;;;;;;;-142.64;100.00;58178.75;5053993;28;20033;-54
2022/06/15 07:02:34;;;;;;;6.82;3.70;;;;;;;-142.64;100.00;58178.75;5054067;28;20048;-58
2022/06/15 07:04:59;;;;;;;7.72;4.15;;;;;;;-142.64;100.00;58178.75;5053783;28;20029;-58
2022/06/15 07:07:24;;;;;;;7.75;3.80;;;;;;;-142.64;100.00;58178.75;5053712;28;20041;-56
2022/06/15 07:09:50;;;;;;;5.93;3.55;;;;;;;-142.64;100.00;58178.75;5053724;28;20040;-58
2022/06/15 07:12:15;;;;;;;6.75;4.55;;;;;;;-142.64;100.00;58178.75;5053564;28;20044;-56
2022/06/15 07:14:41;;;;;;;7.57;3.83;;;;;;;-142.64;100.00;58178.75;5053703;28;20403;-57
2022/06/15 07:17:06;;;;;;;5.85;4.00;;;;;;;-142.64;100.00;58178.75;5053629;28;20039;-57
2022/06/15 07:19:31;;;;;;;8.05;4.22;;;;;;;-142.64;100.00;58178.75;5052169;28;20098;-56
2022/06/15 07:21:57;;;;;;;5.55;3.58;;;;;;;-142.64;100.00;58178.75;5052037;28;20045;-55
2022/06/15 07:24:22;;;;;;;8.93;4.18;;;;;;;-142.64;100.00;58178.75;5051927;28;20486;-55
2022/06/15 07:26:47;;;;;;;5.07;3.78;;;;;;;-142.64;100.00;58178.75;5052117;28;20032;-56
2022/06/15 07:29:17;;;;;;;8.43;4.63;;;;;;;-142.64;100.00;58178.75;5028666;28;20033;-57
2022/06/15 07:31:46;;;;;;;6.30;3.83;;;;;;;-142.64;100.00;58178.75;5031011;28;20042;-54
2022/06/15 07:34:12;;;;;;;6.90;3.63;;;;;;;-142.64;100.00;58178.75;5031471;28;20032;-57
2022/06/15 07:36:40;;;;;;;8.10;4.07;;;;;;;-142.64;100.00;58178.75;5031589;28;20029;-55
2022/06/15 07:39:06;;;;;;;5.60;3.35;;;;;;;-142.64;100.00;58178.75;5031086;28;20543;-55
2022/06/15 07:41:32;;;;;;;5.10;3.38;;;;;;;-142.64;100.00;58178.75;5032027;28;20029;-57
2022/06/15 07:43:58;;;;;;;4.43;3.42;;;;;;;-142.64;100.00;58178.75;5031819;28;20044;-56
2022/06/15 07:46:23;;;;;;;6.00;3.05;;;;;;;-142.64;100.00;58178.75;5030500;28;20080;-56
2022/06/15 07:51:40;;;;;;;4.93;2.60;;;;;;;-142.64;100.00;58178.75;5031208;28;20127;-55
2022/06/15 07:54:09;;;;;;;7.50;3.03;;;;;;;-142.64;100.00;58178.75;5031336;28;20128;-52
2022/06/15 07:56:36;;;;;;;5.35;3.00;;;;;;;-142.64;100.00;58178.75;5030260;28;20530;-57
2022/06/15 07:59:01;;;;;;;7.47;2.75;;;;;;;-142.64;100.00;58178.75;5030391;28;20047;-51
2022/06/15 08:01:27;;;;;;;8.18;3.08;;;;;;;-142.64;100.00;58178.75;5031204;28;20557;-56
2022/06/15 08:03:53;;;;;;;7.93;2.95;;;;;;;-142.64;100.00;58178.75;5030375;28;20496;-58
2022/06/15 08:06:19;;;;;;;5.30;2.05;;;;;;;-142.64;100.00;58178.75;5030976;28;20053;-56
2022/06/15 08:08:44;;;;;;;4.60;1.95;;;;;;;-142.64;100.00;58178.75;5029787;28;20472;-58
2022/06/15 08:11:10;;;;;;;4.88;2.40;;;;;;;-142.64;100.00;58178.75;5031190;28;20034;-56
2022/06/15 08:13:35;;;;;;;7.50;2.90;;;;;;;-142.64;100.00;58178.75;5029788;28;20045;-55
2022/06/15 08:16:01;;;;;;;7.18;2.90;;;;;;;-142.64;100.00;58178.75;5031171;28;20034;-57
2022/06/15 08:18:28;;;;;;;8.68;2.60;;;;;;;-142.64;100.00;58178.75;5029769;28;20069;-54
2022/06/15 08:21:00;;;;;;;5.80;1.67;;;;;;;-142.64;100.00;58178.75;5031198;28;20037;-56
2022/06/15 08:23:29;;;;;;;5.60;2.30;;;;;;;-142.64;100.00;58178.75;5029899;28;20032;-56
2022/06/15 08:25:59;;;;;;;7.45;2.58;;;;;;;-142.64;100.00;58178.75;5029929;28;20488;-55
2022/06/15 08:28:28;;;;;;;11.02;3.55;;;;;;;-142.64;100.00;58178.75;5030890;28;20040;-56
2022/06/15 08:30:54;;;;;;;6.07;2.30;;;;;;;-142.64;100.00;58178.75;5030705;28;20080;-51
2022/06/15 08:33:20;;;;;;;3.38;2.08;;;;;;;-142.64;100.00;58178.75;5030853;28;20114;-55
2022/06/15 08:35:47;;;;;;;4.20;1.48;;;;;;;-142.64;100.00;58178.75;5031243;28;20116;-54
2022/06/15 08:38:15;;;;;;;4.57;2.22;;;;;;;-142.64;100.00;58178.75;5029759;28;20029;-53
2022/06/15 08:40:59;;;;;;;3.78;1.73;;;;;;;-142.64;100.00;58178.75;5029650;28;20037;-52
2022/06/15 08:43:55;;;;;;;4.30;2.10;;;;;;;-142.64;100.00;58178.75;5029695;28;20037;-56
2022/06/15 08:46:58;;;;;;;5.70;2.28;;;;;;;-142.64;100.00;58178.75;5030833;28;20384;-53
2022/06/15 08:49:38;;;;;;;4.20;2.15;;;;;;;-142.64;100.00;58178.75;5030644;28;20037;-57
2022/06/15 08:52:19;;;;;;;4.32;1.83;;;;;;;-142.64;100.00;58178.75;5030663;28;20148;-52
2022/06/15 08:54:58;;;;;;;5.20;2.13;;;;;;;-142.64;100.00;58178.75;5030858;28;20334;-54
2022/06/15 08:57:40;;;;;;;6.53;1.55;;;;;;;-142.64;100.00;58178.75;5029595;28;20029;-56
2022/06/15 09:00:14;;;;;;;2.70;1.70;;;;;;;-142.64;100.00;58178.75;5030507;28;20131;-55
2022/06/15 09:02:57;;;;;;;6.72;2.03;;;;;;;-142.64;100.00;58178.75;5030701;28;20033;-53
2022/06/15 09:05:52;;;;;;;4.13;2.03;;;;;;;-142.64;100.00;58178.75;5029461;28;20057;-56
2022/06/15 09:08:41;;;;;;;5.80;2.28;;;;;;;-142.64;100.00;58178.75;5043165;28;20045;-56
2022/06/15 09:11:19;;;;;;;8.95;2.28;;;;;;;-142.64;100.00;58178.75;5029976;28;20042;-55
2022/06/15 09:13:53;;;;;;;5.47;2.22;;;;;;;-142.64;100.00;58178.75;5037280;28;20416;-57
2022/06/15 09:16:40;;;;;;;3.03;1.88;;;;;;;-142.64;100.00;58178.75;5050459;28;20095;-58
2022/06/15 09:19:08;;;;;;;4.18;2.00;;;;;;;-142.64;100.00;58178.75;5050518;28;20068;-56
2022/06/15 09:21:37;;;;;;;4.50;1.77;;;;;;;-142.64;100.00;58178.75;5052036;28;20493;-53
2022/06/15 09:24:16;;;;;;;3.00;2.15;;;;;;;-142.64;100.00;58178.75;5036201;28;20029;-54
2022/06/15 09:26:58;;;;;;;4.40;1.80;;;;;;;-142.64;100.00;58178.75;5052784;28;20028;-54
2022/06/15 09:29:27;;;;;;;4.90;2.10;;;;;;;-142.64;100.00;58178.75;5053017;28;20458;-58
2022/06/15 09:32:02;;;;;;;4.82;2.08;;;;;;;-142.64;100.00;58178.75;5036485;28;20120;-56
2022/06/15 09:34:38;;;;;;;2.40;1.50;;;;;;;-142.64;100.00;58178.75;5054106;28;20128;-54
2022/06/15 09:37:11;;;;;;;4.68;2.00;;;;;;;-142.64;100.00;58178.75;5037453;28;20037;-55
2022/06/15 09:39:37;;;;;;;5.55;2.05;;;;;;;-142.64;100.00;58178.75;5032313;28;20049;-56
2022/06/15 09:42:03;;;;;;;4.50;2.25;;;;;;;-142.64;100.00;58178.75;5049370;28;20042;-55
2022/06/15 09:45:01;;;;;;;6.05;2.00;;;;;;;-142.64;100.00;58178.75;5033825;28;20041;-56
2022/06/15 09:47:42;;;;;;;5.32;2.85;;;;;;;-142.64;100.00;58178.75;5028859;28;20045;-56
2022/06/15 09:50:29;;;;;;;3.85;1.38;;;;;;;-142.64;100.00;58178.75;5049317;28;20484;-52
2022/06/15 09:53:00;;;;;;;3.83;1.60;;;;;;;-142.64;100.00;58178.75;5033754;28;20041;-55
2022/06/15 09:55:39;;;;;;;3.95;1.80;;;;;;;-142.64;100.00;58178.75;5033680;28;20029;-54
2022/06/15 09:58:06;;;;;;;3.42;1.75;;;;;;;-142.64;100.00;58178.75;5033592;28;20033;-53
2022/06/15 10:00:32;;;;;;;4.28;1.85;;;;;;;-142.64;100.00;58178.75;5033668;28;20439;-53
2022/06/15 10:03:02;;;;;;;4.85;1.90;;;;;;;-142.64;100.00;58178.75;5032760;28;20104;-54
2022/06/15 10:05:36;;;;;;;7.20;2.47;;;;;;;-142.64;100.00;58178.75;5034007;28;20034;-58
2022/06/15 10:08:14;;;;;;;3.58;2.13;;;;;;;-142.64;100.00;58178.75;5033429;28;20029;-58
2022/06/15 10:10:55;;;;;;;5.20;1.92;;;;;;;-142.64;100.00;58178.75;5033381;28;20030;-55
2022/06/15 10:13:20;;;;;;;4.18;1.98;;;;;;;-142.64;100.00;58178.75;5048671;28;20420;-57
2022/06/15 10:15:52;;;;;;;8.70;2.30;;;;;;;-142.64;100.00;58178.75;5033494;28;20041;-57
2022/06/15 10:18:30;;;;;;;5.05;1.95;;;;;;;-142.64;100.00;58178.75;5031918;28;20057;-57
2022/06/15 10:21:04;;;;;;;2.70;1.95;;;;;;;-142.64;100.00;58178.75;5031914;28;20037;-56
2022/06/15 10:23:51;;;;;;;5.68;2.38;;;;;;;-142.64;100.00;58178.75;5032842;28;20476;-57
2022/06/15 10:26:29;;;;;;;3.95;2.05;;;;;;;-142.64;100.00;58178.75;5033044;28;20076;-53
2022/06/15 10:28:55;;;;;;;4.25;2.30;;;;;;;-142.64;100.00;58178.75;5033155;28;20029;-55
2022/06/15 10:31:32;;;;;;;8.52;2.70;;;;;;;-142.64;100.00;58178.75;5032928;28;20048;-57
2022/06/15 10:33:58;;;;;;;4.90;1.80;;;;;;;-142.64;100.00;58178.75;5047919;28;20045;-55
2022/06/15 10:36:28;;;;;;;4.93;2.47;;;;;;;-142.64;100.00;58178.75;5048424;28;20072;-55
2022/06/15 10:39:18;;;;;;;8.13;2.65;;;;;;;-142.64;100.00;58178.75;5031692;28;20087;-55
2022/06/15 10:41:47;;;;;;;4.25;2.28;;;;;;;-142.64;100.00;58178.75;5030595;28;20453;-53
2022/06/15 10:44:19;;;;;;;4.00;1.95;;;;;;;-142.64;100.00;58178.75;5032181;28;20036;-56
2022/06/15 10:46:58;;;;;;;4.35;2.13;;;;;;;-142.64;100.00;58178.75;5032176;28;20551;-53
2022/06/15 10:49:24;;;;;;;4.50;2.50;;;;;;;-142.64;100.00;58178.75;5031186;28;20041;-55
2022/06/15 10:51:50;;;;;;;6.57;2.80;;;;;;;-142.64;100.00;58178.75;5032975;28;20175;-55
2022/06/15 10:54:32;;;;;;;3.92;2.40;;;;;;;-142.64;100.00;58178.75;5032653;28;20029;-53
2022/06/15 11:03:02;;;;;;;3.60;1.88;;;;;;;-142.64;100.00;58178.75;5031303;28;20036;-54
2022/06/15 11:05:30;;;;;;;6.45;2.78;;;;;;;-142.64;100.00;58178.75;5032336;28;20029;-54
2022/06/15 11:07:58;;;;;;;5.05;2.30;;;;;;;-142.64;100.00;58178.75;5048115;28;20033;-57
2022/06/15 11:10:35;;;;;;;4.85;2.20;;;;;;;-142.64;100.00;58178.75;5031176;28;20038;-53
2022/06/15 11:13:30;;;;;;;4.68;2.13;;;;;;;-142.64;100.00;58178.75;5032241;28;20056;-55
2022/06/15 11:18:46;;;;;;;4.85;2.45;;;;;;;-142.64;100.00;58178.75;5032436;28;20415;-53
2022/06/15 11:21:19;;;;;;;3.83;2.58;;;;;;;-142.64;100.00;58178.75;5047517;28;20034;-54
2022/06/15 11:23:54;;;;;;;3.03;1.83;;;;;;;-142.64;100.00;58178.75;5047213;28;20536;-56
2022/06/15 11:26:55;;;;;;;3.45;1.90;;;;;;;-142.64;100.00;58178.75;5031977;28;20091;-53
2022/06/15 11:30:04;;;;;;;5.53;2.55;;;;;;;-142.64;100.00;58178.75;5032055;28;20120;-55
2022/06/15 11:32:33;;;;;;;4.13;1.83;;;;;;;-142.64;100.00;58178.75;4993096;28;20045;-56
2022/06/15 11:35:14;;;;;;;5.53;2.13;;;;;;;-142.64;100.00;58178.75;4993326;28;20117;-52